Time;durP1;ratioP1;P1;durP2;ratioP2;P2;SDS_P1;SDS_P2;PMS_P1;PMS_P2;Temp;Humidity;BMP_temperature;BMP_pressure;BME280_temperature;BME280_humidity;BME280_pressure;Samples;Min_cycle;Max_cycle;Signal;HPM_P1;HPM_P2
2022/11/01 00:01:59;;;;;;;37.37;24.13;;;12.20;99.90;;;;;;5015647;28;20298;-57
2022/11/01 00:04:27;;;;;;;37.43;23.43;;;12.20;99.90;;;;;;5010081;28;20233;-56
2022/11/01 00:06:55;;;;;;;36.53;23.50;;;12.20;99.90;;;;;;5014150;28;20232;-57
2022/11/01 00:09:23;;;;;;;36.20;23.87;;;12.30;99.90;;;;;;5015868;28;20228;-56
2022/11/01 00:11:51;;;;;;;35.50;22.77;;;12.20;99.90;;;;;;5016113;28;20231;-55
2022/11/01 00:14:20;;;;;;;37.33;23.60;;;12.20;99.90;;;;;;5011185;28;20233;-56
2022/11/01 00:16:49;;;;;;;33.73;21.80;;;12.20;99.90;;;;;;5012809;28;20228;-57
2022/11/01 00:19:18;;;;;;;41.47;25.07;;;12.20;99.90;;;;;;5015785;28;20231;-56
2022/11/01 00:21:46;;;;;;;35.93;22.63;;;12.20;99.90;;;;;;5015567;28;20240;-57
2022/11/01 00:24:14;;;;;;;38.77;24.00;;;12.20;99.90;;;;;;5011362;28;20627;-56
2022/11/01 00:26:42;;;;;;;33.97;21.47;;;12.20;99.90;;;;;;5011947;28;20239;-56
2022/11/01 00:29:11;;;;;;;37.53;23.17;;;12.20;99.90;;;;;;5015844;28;20232;-56
2022/11/01 00:31:39;;;;;;;37.60;24.53;;;12.10;99.90;;;;;;5014980;28;20236;-56
2022/11/01 00:34:08;;;;;;;35.93;23.07;;;12.10;99.90;;;;;;5005713;28;20238;-57
2022/11/01 00:36:37;;;;;;;37.63;24.90;;;12.20;99.90;;;;;;5010755;28;20585;-57
2022/11/01 00:39:05;;;;;;;37.03;24.10;;;12.20;99.90;;;;;;5015611;28;20235;-57
2022/11/01 00:41:34;;;;;;;37.60;25.10;;;12.10;99.90;;;;;;5015165;28;20227;-56
2022/11/01 00:44:02;;;;;;;39.80;26.10;;;12.10;99.90;;;;;;5010837;28;20661;-57
2022/11/01 00:46:30;;;;;;;40.87;27.27;;;12.10;99.90;;;;;;5009798;28;20298;-56
2022/11/01 00:48:58;;;;;;;40.63;25.77;;;12.10;99.90;;;;;;5015328;28;20599;-56
2022/11/01 00:51:27;;;;;;;44.07;28.70;;;12.20;99.90;;;;;;5015303;28;20294;-57
2022/11/01 00:53:56;;;;;;;39.83;27.47;;;12.20;99.90;;;;;;5011656;28;20238;-57
2022/11/01 00:56:24;;;;;;;44.40;27.73;;;12.20;99.90;;;;;;4997583;28;20295;-57
2022/11/01 00:58:52;;;;;;;44.73;28.43;;;12.20;99.90;;;;;;4995610;28;20245;-57
2022/11/01 01:01:20;;;;;;;45.87;29.37;;;12.30;99.90;;;;;;4995099;28;20244;-56
2022/11/01 01:03:48;;;;;;;50.03;30.37;;;12.30;99.90;;;;;;5009961;28;20234;-57
2022/11/01 01:06:16;;;;;;;53.47;32.20;;;12.30;99.90;;;;;;5007243;28;20266;-56
2022/11/01 01:08:44;;;;;;;54.03;31.20;;;12.40;99.90;;;;;;5014967;28;20252;-57
2022/11/01 01:11:13;;;;;;;56.43;32.43;;;12.40;99.90;;;;;;5014658;28;20767;-57
2022/11/01 01:13:42;;;;;;;53.30;32.37;;;12.40;99.90;;;;;;5014672;28;20243;-57
2022/11/01 01:16:11;;;;;;;54.33;33.33;;;12.40;99.90;;;;;;5006933;28;20282;-58
2022/11/01 01:18:39;;;;;;;55.97;34.17;;;12.40;99.90;;;;;;5014734;28;20234;-57
2022/11/01 01:21:09;;;;;;;57.30;34.63;;;12.50;99.90;;;;;;5014598;28;20231;-57
2022/11/01 01:23:37;;;;;;;57.80;35.50;;;12.50;99.90;;;;;;5006884;28;20225;-56
2022/11/01 01:26:07;;;;;;;63.13;37.23;;;12.50;99.90;;;;;;5003067;28;20224;-56
2022/11/01 01:28:37;;;;;;;62.60;36.23;;;12.50;99.90;;;;;;4994858;28;20242;-57
2022/11/01 01:31:12;;;;;;;56.30;35.17;;;12.60;99.90;;;;;;4994563;28;20724;-56
2022/11/01 01:33:40;;;;;;;59.87;35.87;;;12.60;99.90;;;;;;5008938;28;20591;-56
2022/11/01 01:36:09;;;;;;;61.17;36.90;;;12.60;99.90;;;;;;5006278;28;20224;-57
2022/11/01 01:38:37;;;;;;;66.40;38.43;;;12.60;99.90;;;;;;5014320;28;20240;-57
2022/11/01 01:43:52;;;;;;;68.80;39.10;;;12.70;99.90;;;;;;5012846;28;20258;-56
2022/11/01 01:46:20;;;;;;;69.87;40.43;;;12.70;99.90;;;;;;5007527;28;20232;-57
2022/11/01 01:48:53;;;;;;;73.53;42.57;;;12.70;99.90;;;;;;5014184;28;20247;-57
2022/11/01 01:51:24;;;;;;;70.23;40.63;;;12.70;99.90;;;;;;5014089;28;20224;-56
2022/11/01 01:53:54;;;;;;;69.93;39.90;;;12.70;99.90;;;;;;5005524;28;20248;-57
2022/11/01 01:56:29;;;;;;;71.40;39.47;;;12.70;99.90;;;;;;5000505;28;20225;-56
2022/11/01 01:59:03;;;;;;;74.07;41.27;;;12.70;99.90;;;;;;4994175;28;20232;-56
2022/11/01 02:01:32;;;;;;;78.03;41.97;;;12.70;99.90;;;;;;4993923;28;20290;-57
2022/11/01 02:04:01;;;;;;;81.77;43.57;;;12.80;99.90;;;;;;5008935;28;20318;-56
2022/11/01 02:06:29;;;;;;;81.50;43.37;;;12.70;99.90;;;;;;5008044;28;20695;-57
2022/11/01 02:08:59;;;;;;;71.30;42.50;;;12.80;99.90;;;;;;5013787;28;20251;-57
2022/11/01 02:11:27;;;;;;;78.27;42.23;;;12.80;99.90;;;;;;5013433;28;20348;-56
2022/11/01 02:13:58;;;;;;;82.67;45.73;;;12.70;99.90;;;;;;5012085;28;20232;-57
2022/11/01 02:16:37;;;;;;;75.00;42.07;;;12.80;99.90;;;;;;5008809;28;20236;-60
2022/11/01 02:19:34;;;;;;;73.70;41.87;;;12.80;99.90;;;;;;5013661;28;20216;-59
2022/11/01 02:22:07;;;;;;;85.93;45.03;;;12.90;99.90;;;;;;5014254;28;20235;-60
2022/11/01 02:24:49;;;;;;;81.80;43.50;;;12.80;99.90;;;;;;5001486;28;20236;-60
2022/11/01 02:27:25;;;;;;;78.20;42.57;;;12.80;99.90;;;;;;5014852;28;20274;-59
2022/11/01 02:30:11;;;;;;;71.80;40.53;;;12.80;99.90;;;;;;5014230;28;20576;-59
2022/11/01 02:33:07;;;;;;;81.50;42.90;;;12.80;99.90;;;;;;5013772;28;20734;-59
2022/11/01 02:35:54;;;;;;;87.63;44.57;;;12.80;99.90;;;;;;5008171;28;20236;-59
2022/11/01 02:38:27;;;;;;;87.30;45.93;;;12.80;99.90;;;;;;5019257;28;20617;-59
2022/11/01 02:41:03;;;;;;;83.47;44.37;;;12.80;99.90;;;;;;5034034;28;20234;-59
2022/11/01 02:43:44;;;;;;;81.90;42.93;;;12.80;99.90;;;;;;5022610;28;20247;-59
2022/11/01 02:49:00;;;;;;;83.43;44.33;;;12.80;99.90;;;;;;5012173;28;20318;-59
2022/11/01 02:51:29;;;;;;;79.60;43.77;;;12.80;99.90;;;;;;5014277;28;20235;-59
2022/11/01 02:54:01;;;;;;;80.47;45.10;;;12.80;99.90;;;;;;5012627;28;20235;-59
2022/11/01 02:56:30;;;;;;;87.13;44.63;;;12.80;99.90;;;;;;5008957;28;20233;-59
2022/11/01 02:58:58;;;;;;;83.73;45.03;;;12.80;99.90;;;;;;5014418;28;20231;-60
2022/11/01 03:01:28;;;;;;;87.13;45.50;;;12.80;99.90;;;;;;5013989;28;20252;-57
2022/11/01 03:03:58;;;;;;;82.43;46.20;;;12.90;99.90;;;;;;5019937;28;20232;-60
2022/11/01 03:06:35;;;;;;;81.43;44.40;;;12.90;99.90;;;;;;5014718;28;20244;-59
2022/11/01 03:09:07;;;;;;;80.73;45.70;;;12.90;99.90;;;;;;5014424;28;20691;-59
2022/11/01 03:11:45;;;;;;;87.43;45.90;;;12.90;99.90;;;;;;5013897;28;20225;-59
2022/11/01 03:14:23;;;;;;;89.40;46.03;;;12.90;99.90;;;;;;5012240;28;20624;-59
2022/11/01 03:16:59;;;;;;;81.67;44.50;;;12.90;99.90;;;;;;5004007;28;20238;-59
2022/11/01 03:19:37;;;;;;;87.67;44.03;;;12.90;99.90;;;;;;5013637;28;20231;-59
2022/11/01 03:22:12;;;;;;;79.47;44.10;;;13.00;99.90;;;;;;5014231;28;20235;-59
2022/11/01 03:24:45;;;;;;;85.87;45.63;;;12.90;99.90;;;;;;5005980;28;20236;-60
2022/11/01 03:27:20;;;;;;;84.43;45.90;;;13.00;99.90;;;;;;5014037;28;20234;-59
2022/11/01 03:29:55;;;;;;;80.43;44.70;;;13.00;99.90;;;;;;5014653;28;20239;-59
2022/11/01 03:32:27;;;;;;;84.93;44.90;;;13.00;99.90;;;;;;5017454;28;20235;-60
2022/11/01 03:34:57;;;;;;;75.23;45.23;;;13.00;99.90;;;;;;5009006;28;20237;-59
2022/11/01 03:37:28;;;;;;;75.87;43.10;;;13.00;99.90;;;;;;5017548;28;20642;-59
2022/11/01 03:40:02;;;;;;;78.30;43.83;;;13.00;99.90;;;;;;5017286;28;20231;-60
2022/11/01 03:42:32;;;;;;;78.30;44.20;;;13.00;99.90;;;;;;5017634;28;20246;-59
2022/11/01 03:45:06;;;;;;;82.63;45.50;;;12.90;99.90;;;;;;5014194;28;20231;-60
2022/11/01 03:47:36;;;;;;;77.23;44.07;;;13.00;99.90;;;;;;5017269;28;20242;-60
2022/11/01 03:50:18;;;;;;;72.00;41.90;;;13.00;99.90;;;;;;5017630;28;20246;-60
2022/11/01 03:52:48;;;;;;;72.40;41.53;;;13.00;99.90;;;;;;5017085;28;20236;-60
2022/11/01 03:55:20;;;;;;;76.67;42.60;;;13.00;99.90;;;;;;5008957;28;20232;-60
2022/11/01 03:57:49;;;;;;;77.73;42.13;;;13.00;99.90;;;;;;5017151;28;20255;-60
2022/11/01 04:00:19;;;;;;;79.77;43.60;;;13.00;99.90;;;;;;5017121;28;20229;-60
2022/11/01 04:02:48;;;;;;;72.40;42.17;;;13.00;99.90;;;;;;5015981;28;20323;-57
2022/11/01 04:05:16;;;;;;;77.10;42.27;;;13.00;99.90;;;;;;5007767;28;20710;-57
2022/11/01 04:07:45;;;;;;;69.00;42.33;;;13.00;99.90;;;;;;5015786;28;20288;-57
2022/11/01 04:10:15;;;;;;;75.97;42.27;;;13.00;99.90;;;;;;5015843;28;20248;-56
2022/11/01 04:12:45;;;;;;;76.67;44.30;;;13.10;99.90;;;;;;5015893;28;20236;-56
2022/11/01 04:20:51;;;;;;;71.50;40.23;;;13.10;99.90;;;;;;5015860;28;20243;-56
2022/11/01 04:23:19;;;;;;;77.07;41.90;;;13.00;99.90;;;;;;5015892;28;20227;-56
2022/11/01 04:25:48;;;;;;;78.00;42.97;;;13.00;99.90;;;;;;5007393;28;20232;-56
2022/11/01 04:28:16;;;;;;;79.03;43.27;;;13.00;99.90;;;;;;5015572;28;20236;-57
2022/11/01 04:30:44;;;;;;;70.73;41.33;;;13.10;99.90;;;;;;5015049;28;20240;-56
2022/11/01 04:33:12;;;;;;;71.13;41.77;;;13.10;99.90;;;;;;5015734;28;20654;-56
2022/11/01 04:35:40;;;;;;;75.43;42.07;;;13.10;99.90;;;;;;5007050;28;20278;-56
2022/11/01 04:38:10;;;;;;;71.07;41.47;;;13.10;99.90;;;;;;5015280;28;20232;-57
2022/11/01 04:40:38;;;;;;;69.63;41.47;;;13.10;99.90;;;;;;5014647;28;20446;-57
2022/11/01 04:43:09;;;;;;;68.23;40.23;;;13.10;99.90;;;;;;5014742;28;20659;-56
2022/11/01 04:45:38;;;;;;;64.53;39.50;;;13.10;99.90;;;;;;5010138;28;20229;-56
2022/11/01 04:48:11;;;;;;;65.40;41.03;;;13.10;99.90;;;;;;5034952;28;20231;-56
2022/11/01 04:50:40;;;;;;;65.93;38.60;;;13.20;99.90;;;;;;5034645;28;20224;-56
2022/11/01 04:53:09;;;;;;;65.17;39.87;;;13.20;99.90;;;;;;5030305;28;20228;-56
2022/11/01 04:55:37;;;;;;;64.23;37.93;;;13.10;99.90;;;;;;5009271;28;20655;-56
2022/11/01 04:58:05;;;;;;;65.00;39.73;;;13.20;99.90;;;;;;5015378;28;20243;-56
2022/11/01 05:00:35;;;;;;;65.50;38.77;;;13.20;99.90;;;;;;5014444;28;20243;-57
2022/11/01 05:03:05;;;;;;;61.50;38.03;;;13.20;99.90;;;;;;5014860;28;20690;-56
2022/11/01 05:05:35;;;;;;;61.93;38.03;;;13.20;99.90;;;;;;5021633;28;20741;-57
2022/11/01 05:08:05;;;;;;;64.63;37.33;;;13.20;99.90;;;;;;5003522;28;20595;-57
2022/11/01 05:10:34;;;;;;;60.93;38.07;;;13.30;99.90;;;;;;5000573;28;20231;-57
2022/11/01 05:13:03;;;;;;;57.30;36.30;;;13.30;99.90;;;;;;5010370;28;20691;-56
2022/11/01 05:15:32;;;;;;;59.23;36.97;;;13.30;99.90;;;;;;5006196;28;20315;-57
2022/11/01 05:18:03;;;;;;;60.20;37.43;;;13.30;99.90;;;;;;5014661;28;20223;-57
2022/11/01 05:20:31;;;;;;;57.10;36.17;;;13.30;99.90;;;;;;5014521;28;20729;-57
2022/11/01 05:23:00;;;;;;;56.83;35.00;;;13.40;99.90;;;;;;5029979;28;20679;-57
2022/11/01 05:25:29;;;;;;;61.37;36.63;;;13.40;99.90;;;;;;5014628;28;20236;-57
2022/11/01 05:28:05;;;;;;;56.83;36.27;;;13.40;99.90;;;;;;5014396;28;20236;-57
2022/11/01 05:30:33;;;;;;;58.10;36.43;;;13.40;99.90;;;;;;5013539;28;20290;-57
2022/11/01 05:33:05;;;;;;;58.20;36.37;;;13.40;99.90;;;;;;5013568;28;20290;-57
2022/11/01 05:35:34;;;;;;;56.73;36.30;;;13.40;99.90;;;;;;5005724;28;20596;-57
2022/11/01 05:38:04;;;;;;;56.97;37.23;;;13.40;99.90;;;;;;5012085;28;20631;-56
2022/11/01 05:40:33;;;;;;;54.80;35.63;;;13.50;99.90;;;;;;5012619;28;20311;-57
2022/11/01 05:43:01;;;;;;;54.13;35.20;;;13.40;99.90;;;;;;5013897;28;20258;-57
2022/11/01 05:45:30;;;;;;;56.90;34.83;;;13.50;99.90;;;;;;5007472;28;20758;-56
2022/11/01 05:48:04;;;;;;;54.27;35.00;;;13.50;99.90;;;;;;4994732;28;20622;-57
2022/11/01 05:50:32;;;;;;;58.30;35.60;;;13.50;99.90;;;;;;4994123;28;20241;-57
2022/11/01 05:53:07;;;;;;;51.00;34.37;;;13.50;99.90;;;;;;4994503;28;20259;-56
2022/11/01 05:55:36;;;;;;;51.77;33.93;;;13.50;99.90;;;;;;4994454;28;20235;-56
2022/11/01 05:58:04;;;;;;;54.17;32.67;;;13.50;99.90;;;;;;4994599;28;20251;-57
2022/11/01 06:00:33;;;;;;;46.17;31.70;;;13.50;99.90;;;;;;4993976;28;20238;-56
2022/11/01 06:03:03;;;;;;;48.53;31.10;;;13.50;99.90;;;;;;5007813;28;20225;-56
2022/11/01 06:05:32;;;;;;;46.57;30.67;;;13.50;99.90;;;;;;5011813;28;20639;-57
2022/11/01 06:08:01;;;;;;;48.50;31.70;;;13.50;99.90;;;;;;5013815;28;20232;-56
2022/11/01 06:10:30;;;;;;;52.77;31.73;;;13.50;99.90;;;;;;5009064;28;20690;-58
2022/11/01 06:12:58;;;;;;;53.10;31.47;;;13.50;99.90;;;;;;5013067;28;20238;-57
2022/11/01 06:15:27;;;;;;;48.40;30.20;;;13.50;99.90;;;;;;5011224;28;20309;-57
2022/11/01 06:17:57;;;;;;;42.97;29.50;;;13.50;99.90;;;;;;5009432;28;20244;-56
2022/11/01 06:20:28;;;;;;;44.60;29.17;;;13.50;99.90;;;;;;5002391;28;20229;-55
2022/11/01 06:22:56;;;;;;;40.97;28.67;;;13.60;99.90;;;;;;5001692;28;20259;-57
2022/11/01 06:25:26;;;;;;;43.67;28.77;;;13.60;99.90;;;;;;5004964;28;20247;-57
2022/11/01 06:27:54;;;;;;;47.80;30.23;;;13.60;99.90;;;;;;5006237;28;20237;-57
2022/11/01 06:30:22;;;;;;;42.87;28.57;;;13.60;99.90;;;;;;5002549;28;20225;-57
2022/11/01 06:32:51;;;;;;;41.00;28.50;;;13.50;99.90;;;;;;5013339;28;20232;-57
2022/11/01 06:35:19;;;;;;;44.67;27.07;;;13.60;99.90;;;;;;5002119;28;20295;-57
2022/11/01 06:37:48;;;;;;;40.67;28.67;;;13.60;99.90;;;;;;5002465;28;20596;-56
2022/11/01 06:40:16;;;;;;;39.80;27.27;;;13.60;99.90;;;;;;5001763;28;20279;-57
2022/11/01 06:42:44;;;;;;;40.50;29.43;;;13.60;99.90;;;;;;4995632;28;20268;-57
2022/11/01 06:45:14;;;;;;;44.13;29.03;;;13.60;99.90;;;;;;5003534;28;20555;-57
2022/11/01 06:47:46;;;;;;;42.57;27.37;;;13.60;99.90;;;;;;5004423;28;20233;-57
2022/11/01 06:50:15;;;;;;;37.37;26.50;;;13.60;99.90;;;;;;5000180;28;20231;-56
2022/11/01 06:52:43;;;;;;;42.87;27.00;;;13.60;99.90;;;;;;5001434;28;20631;-57
2022/11/01 06:55:12;;;;;;;42.43;26.43;;;13.60;99.90;;;;;;4999704;28;20235;-57
2022/11/01 06:57:40;;;;;;;41.43;25.60;;;13.70;99.90;;;;;;5003617;28;20229;-57
2022/11/01 07:00:10;;;;;;;37.70;25.97;;;13.70;99.90;;;;;;5004374;28;20738;-57
2022/11/01 07:02:38;;;;;;;34.50;24.80;;;13.70;99.90;;;;;;5001554;28;20241;-57
2022/11/01 07:05:07;;;;;;;32.73;23.30;;;13.70;99.90;;;;;;5006559;28;20734;-57
2022/11/01 07:07:35;;;;;;;33.87;24.80;;;13.80;99.90;;;;;;4999313;28;20225;-57
2022/11/01 07:10:04;;;;;;;35.60;24.63;;;13.80;99.90;;;;;;4997026;28;20221;-57
2022/11/01 07:12:33;;;;;;;35.53;23.57;;;13.80;99.90;;;;;;4999320;28;20235;-57
2022/11/01 07:15:02;;;;;;;34.33;23.07;;;13.80;99.90;;;;;;5000823;28;20651;-57
2022/11/01 07:17:30;;;;;;;35.10;21.87;;;13.90;99.90;;;;;;5010689;28;20243;-57
2022/11/01 07:19:58;;;;;;;33.37;22.63;;;13.90;99.90;;;;;;5000092;28;20248;-57
2022/11/01 07:22:26;;;;;;;29.10;21.60;;;13.90;99.90;;;;;;4999285;28;20689;-56
2022/11/01 07:24:54;;;;;;;27.87;20.47;;;13.90;99.90;;;;;;5002557;28;20229;-57
2022/11/01 07:27:22;;;;;;;29.30;21.67;;;14.00;99.90;;;;;;5003787;28;20236;-57
2022/11/01 07:29:52;;;;;;;31.23;20.53;;;14.00;99.90;;;;;;5006188;28;20229;-57
2022/11/01 07:32:20;;;;;;;33.10;20.57;;;14.10;99.90;;;;;;5001091;28;20244;-57
2022/11/01 07:34:48;;;;;;;28.50;19.57;;;14.10;99.90;;;;;;5002423;28;20233;-57
2022/11/01 07:37:16;;;;;;;31.57;20.73;;;14.20;99.90;;;;;;5005332;28;20604;-56
2022/11/01 07:39:44;;;;;;;30.27;20.13;;;14.20;99.90;;;;;;5009354;28;20281;-58
2022/11/01 07:42:12;;;;;;;27.70;18.73;;;14.20;99.90;;;;;;5008516;28;20225;-57
2022/11/01 07:44:44;;;;;;;28.57;19.60;;;14.30;99.90;;;;;;5008051;28;20726;-57
2022/11/01 07:47:13;;;;;;;23.60;18.40;;;14.40;99.90;;;;;;5004218;28;20272;-56
2022/11/01 07:49:41;;;;;;;23.57;17.43;;;14.50;99.90;;;;;;5005971;28;20229;-57
2022/11/01 07:52:09;;;;;;;29.57;17.27;;;14.50;99.90;;;;;;4999543;28;20233;-57
2022/11/01 07:54:37;;;;;;;26.93;17.17;;;14.60;99.90;;;;;;4996034;28;20285;-57
2022/11/01 07:57:05;;;;;;;23.87;16.83;;;14.80;99.90;;;;;;5003281;28;20228;-57
2022/11/01 07:59:33;;;;;;;22.97;17.60;;;15.00;99.90;;;;;;5005615;28;20292;-57
2022/11/01 08:02:01;;;;;;;20.67;15.87;;;15.20;99.90;;;;;;5002519;28;20225;-57
2022/11/01 08:04:36;;;;;;;24.30;16.27;;;15.10;99.90;;;;;;4996851;28;20268;-57
2022/11/01 08:07:04;;;;;;;22.23;14.77;;;15.20;99.90;;;;;;5002158;28;20240;-56
2022/11/01 08:09:32;;;;;;;22.40;14.63;;;15.20;99.90;;;;;;5004622;28;20236;-57
2022/11/01 08:12:00;;;;;;;19.20;13.27;;;15.40;99.90;;;;;;5005610;28;20290;-58
2022/11/01 08:14:28;;;;;;;17.07;12.73;;;15.50;99.90;;;;;;5003601;28;20222;-57
2022/11/01 08:17:00;;;;;;;16.10;11.30;;;15.60;99.90;;;;;;4999302;28;20279;-57
2022/11/01 08:19:28;;;;;;;18.10;11.77;;;15.50;99.90;;;;;;5013470;28;20229;-56
2022/11/01 08:21:59;;;;;;;15.80;11.83;;;15.50;99.90;;;;;;5011344;28;20232;-57
2022/11/01 08:24:27;;;;;;;14.43;10.50;;;15.50;99.90;;;;;;5014802;28;20232;-57
2022/11/01 08:26:55;;;;;;;17.00;11.40;;;15.50;99.90;;;;;;5009547;28;20268;-57
2022/11/01 08:29:23;;;;;;;16.10;11.03;;;15.50;99.90;;;;;;5010298;28;20226;-57
2022/11/01 08:31:51;;;;;;;15.87;10.70;;;15.50;99.90;;;;;;5009059;28;20233;-57
2022/11/01 08:34:20;;;;;;;13.73;9.90;;;15.50;99.90;;;;;;5007535;28;20233;-57
2022/11/01 08:36:48;;;;;;;11.90;8.77;;;15.50;99.90;;;;;;5000659;28;20714;-57
2022/11/01 08:39:17;;;;;;;16.90;9.60;;;15.60;99.90;;;;;;5004971;28;20232;-57
2022/11/01 08:41:48;;;;;;;14.40;8.50;;;15.70;99.90;;;;;;5005899;28;20238;-57
2022/11/01 08:44:16;;;;;;;12.37;8.17;;;15.90;99.90;;;;;;5006848;28;20241;-57
2022/11/01 08:46:44;;;;;;;8.80;7.33;;;16.10;99.90;;;;;;5006137;28;20241;-57
2022/11/01 08:49:13;;;;;;;12.07;7.57;;;16.20;99.90;;;;;;5001114;28;20275;-57
2022/11/01 08:51:41;;;;;;;11.00;6.47;;;16.20;99.90;;;;;;5005354;28;20221;-57
2022/11/01 08:54:09;;;;;;;8.83;6.07;;;16.20;99.90;;;;;;5002351;28;20707;-57
2022/11/01 08:56:38;;;;;;;11.53;5.90;;;16.20;99.90;;;;;;5005781;28;20681;-58
2022/11/01 08:59:07;;;;;;;8.33;5.80;;;16.20;99.90;;;;;;5007954;28;20229;-57
2022/11/01 09:01:35;;;;;;;8.97;5.60;;;16.20;99.90;;;;;;5002571;28;20236;-57
2022/11/01 09:04:04;;;;;;;7.53;5.00;;;16.20;99.90;;;;;;5003935;28;20226;-57
2022/11/01 09:06:33;;;;;;;9.23;5.53;;;16.10;99.90;;;;;;5002988;28;20289;-57
2022/11/01 09:09:04;;;;;;;8.87;5.23;;;16.10;99.90;;;;;;5008532;28;20746;-56
2022/11/01 09:11:32;;;;;;;10.80;5.40;;;16.10;99.90;;;;;;4997145;28;20735;-57
2022/11/01 09:14:01;;;;;;;8.67;4.73;;;16.10;99.90;;;;;;5010124;28;20233;-57
2022/11/01 09:16:29;;;;;;;7.10;4.63;;;16.20;99.90;;;;;;5005734;28;20225;-57
2022/11/01 09:19:00;;;;;;;7.13;4.83;;;16.20;99.90;;;;;;5004637;28;20225;-57
2022/11/01 09:21:28;;;;;;;8.47;5.10;;;16.20;99.90;;;;;;5001529;28;20317;-57
2022/11/01 09:23:59;;;;;;;5.57;4.50;;;16.20;99.90;;;;;;5005145;28;20566;-57
2022/11/01 09:26:27;;;;;;;11.83;4.83;;;16.20;99.90;;;;;;4999490;28;20236;-57
2022/11/01 09:28:57;;;;;;;6.03;4.23;;;16.10;99.90;;;;;;5008039;28;20275;-57
2022/11/01 09:31:27;;;;;;;8.67;4.37;;;16.20;99.90;;;;;;5004041;28;20233;-57
2022/11/01 09:33:56;;;;;;;6.97;3.90;;;16.20;99.90;;;;;;5008982;28;20225;-56
2022/11/01 09:36:25;;;;;;;9.07;3.70;;;16.20;99.90;;;;;;5002859;28;20701;-57
2022/11/01 09:38:53;;;;;;;6.13;3.10;;;16.30;99.90;;;;;;5008175;28;20685;-57
2022/11/01 09:41:29;;;;;;;5.33;3.00;;;16.20;99.90;;;;;;5000376;28;20649;-56
2022/11/01 09:43:59;;;;;;;5.50;2.77;;;16.20;99.90;;;;;;5004335;28;20245;-57
2022/11/01 09:46:33;;;;;;;6.13;3.00;;;16.20;99.90;;;;;;5001199;28;20701;-56
2022/11/01 09:49:02;;;;;;;4.00;2.60;;;16.20;99.90;;;;;;5001401;28;20222;-56
2022/11/01 09:51:30;;;;;;;5.67;2.47;;;16.10;99.90;;;;;;5004221;28;20229;-57
2022/11/01 09:54:03;;;;;;;3.70;2.20;;;16.10;99.90;;;;;;5005614;28;20225;-56
2022/11/01 09:56:38;;;;;;;8.17;2.23;;;16.10;99.90;;;;;;4997479;28;20316;-57
2022/11/01 09:59:14;;;;;;;3.97;1.70;;;16.20;99.90;;;;;;5003560;28;20230;-57
2022/11/01 10:01:53;;;;;;;3.73;1.50;;;16.40;99.90;;;;;;5000601;28;20271;-57
2022/11/01 10:04:55;;;;;;;4.23;1.70;;;16.80;99.90;;;;;;5002814;28;20238;-56
2022/11/01 10:07:32;;;;;;;5.03;1.53;;;17.10;99.90;;;;;;4999714;28;20232;-57
2022/11/01 10:10:11;;;;;;;2.80;1.57;;;17.30;99.90;;;;;;5008240;28;20236;-57
2022/11/01 10:12:54;;;;;;;2.70;1.60;;;17.60;99.90;;;;;;4999603;28;20242;-57
2022/11/01 10:15:41;;;;;;;1.70;1.10;;;17.70;99.90;;;;;;5003159;28;20234;-57
2022/11/01 10:18:26;;;;;;;6.37;1.20;;;17.90;99.90;;;;;;5000560;28;20275;-57
2022/11/01 10:20:56;;;;;;;6.03;1.20;;;18.00;99.90;;;;;;5004120;28;20239;-57
2022/11/01 10:23:38;;;;;;;2.03;1.00;;;18.00;99.90;;;;;;4995805;28;20276;-55
2022/11/01 10:26:07;;;;;;;6.60;1.43;;;18.10;99.90;;;;;;5003917;28;20225;-57
2022/11/01 10:28:46;;;;;;;3.97;1.30;;;18.00;99.90;;;;;;5007032;28;20370;-57
2022/11/01 10:31:18;;;;;;;3.47;1.57;;;17.90;99.90;;;;;;5009569;28;20700;-57
2022/11/01 10:33:55;;;;;;;6.30;1.20;;;17.90;99.90;;;;;;4993341;28;20746;-56
2022/11/01 10:36:29;;;;;;;3.80;1.37;;;17.90;99.90;;;;;;5002384;28;20225;-57
2022/11/01 10:39:06;;;;;;;5.27;1.20;;;17.90;99.90;;;;;;4997862;28;20647;-57
2022/11/01 10:41:54;;;;;;;4.23;0.97;;;18.00;99.90;;;;;;5001209;28;20254;-57
2022/11/01 10:44:27;;;;;;;3.63;1.37;;;18.00;99.90;;;;;;5011918;28;20276;-57
2022/11/01 10:46:57;;;;;;;4.37;1.00;;;18.10;99.90;;;;;;4996513;28;20234;-57
2022/11/01 10:49:31;;;;;;;5.20;1.50;;;18.10;99.90;;;;;;5005450;28;20238;-57
2022/11/01 10:52:24;;;;;;;6.57;1.30;;;18.10;99.90;;;;;;5000314;28;20232;-58
2022/11/01 10:54:56;;;;;;;3.47;1.20;;;18.10;99.90;;;;;;5014079;28;20275;-56
2022/11/01 10:57:34;;;;;;;5.73;1.50;;;18.30;99.90;;;;;;5012830;28;20221;-57
2022/11/01 11:00:10;;;;;;;7.97;1.30;;;18.30;99.90;;;;;;5035253;28;20229;-57
2022/11/01 11:02:42;;;;;;;3.33;1.30;;;18.20;99.90;;;;;;5017038;28;20292;-57
2022/11/01 11:05:13;;;;;;;4.30;1.20;;;18.30;99.90;;;;;;5012330;28;20221;-56
2022/11/01 11:07:42;;;;;;;8.83;1.50;;;18.40;99.90;;;;;;5017268;28;20234;-57
2022/11/01 11:10:19;;;;;;;6.67;1.60;;;18.50;99.90;;;;;;5018530;28;20225;-57
2022/11/01 11:12:56;;;;;;;6.87;1.67;;;18.50;99.90;;;;;;5016718;28;20724;-57
2022/11/01 11:15:35;;;;;;;5.40;1.43;;;18.30;99.90;;;;;;5018433;28;20300;-56
2022/11/01 11:18:06;;;;;;;7.00;1.60;;;18.30;99.90;;;;;;5020536;28;20292;-57
2022/11/01 11:20:36;;;;;;;6.67;1.50;;;18.30;99.90;;;;;;5018332;28;20233;-57
2022/11/01 11:23:11;;;;;;;4.87;1.60;;;18.00;99.90;;;;;;5016472;28;20287;-57
2022/11/01 11:25:43;;;;;;;6.10;1.43;;;18.00;99.90;;;;;;5024033;28;20225;-57
2022/11/01 11:28:24;;;;;;;7.83;1.57;;;18.10;99.90;;;;;;5034995;28;20217;-58
2022/11/01 11:30:54;;;;;;;9.03;1.73;;;18.10;99.90;;;;;;5016831;28;20811;-57
2022/11/01 11:33:24;;;;;;;9.27;1.73;;;17.80;99.90;;;;;;5022903;28;20225;-56
2022/11/01 11:35:58;;;;;;;8.10;1.83;;;17.70;99.90;;;;;;5017871;28;20224;-57
2022/11/01 11:38:42;;;;;;;6.93;2.37;;;17.70;99.90;;;;;;5038496;28;20250;-58
2022/11/01 11:41:12;;;;;;;8.80;2.13;;;17.60;99.90;;;;;;5028680;28;20627;-56
2022/11/01 11:43:41;;;;;;;6.67;1.50;;;17.60;99.90;;;;;;5016996;28;20241;-56
2022/11/01 11:46:19;;;;;;;10.57;2.33;;;17.50;99.90;;;;;;5011543;28;20713;-57
2022/11/01 11:48:48;;;;;;;10.63;2.00;;;17.50;99.90;;;;;;5016178;28;20233;-56
2022/11/01 11:51:20;;;;;;;9.37;2.10;;;17.40;99.90;;;;;;5013492;28;20244;-56
2022/11/01 11:54:20;;;;;;;12.03;2.30;;;17.40;99.90;;;;;;5018560;28;20322;-57
2022/11/01 11:56:53;;;;;;;8.63;1.77;;;17.40;99.90;;;;;;5027390;28;20231;-57
2022/11/01 11:59:25;;;;;;;10.60;2.30;;;17.40;99.90;;;;;;5025219;28;20220;-56
2022/11/01 12:01:59;;;;;;;11.07;2.13;;;17.40;99.90;;;;;;5020991;28;20252;-56
2022/11/01 12:04:38;;;;;;;9.40;2.00;;;17.30;99.90;;;;;;5039946;28;20275;-57
2022/11/01 12:07:24;;;;;;;8.80;1.87;;;17.30;99.90;;;;;;5024962;28;20221;-56
2022/11/01 12:09:55;;;;;;;9.53;2.03;;;17.30;99.90;;;;;;5024378;28;20632;-56
2022/11/01 12:12:25;;;;;;;9.13;2.20;;;17.30;99.90;;;;;;5023039;28;20315;-56
2022/11/01 12:14:54;;;;;;;9.40;2.03;;;17.30;99.90;;;;;;5018622;28;20221;-56
2022/11/01 12:17:30;;;;;;;7.60;1.80;;;17.20;99.90;;;;;;5013403;28;20696;-56
2022/11/01 12:20:15;;;;;;;12.83;2.43;;;17.30;99.90;;;;;;5022443;28;20585;-57
2022/11/01 12:22:49;;;;;;;8.47;1.80;;;17.20;99.90;;;;;;5022660;28;20233;-56
2022/11/01 12:25:21;;;;;;;11.37;2.53;;;17.30;99.90;;;;;;5018928;28;20236;-56
2022/11/01 12:27:57;;;;;;;10.63;1.93;;;17.20;99.90;;;;;;5022373;28;20234;-57
2022/11/01 12:30:29;;;;;;;8.40;2.10;;;17.30;99.90;;;;;;5020201;28;20240;-57
2022/11/01 12:33:01;;;;;;;10.87;2.27;;;17.40;99.90;;;;;;5024949;28;20280;-57
2022/11/01 12:35:32;;;;;;;10.40;2.10;;;17.40;99.90;;;;;;5018598;28;20714;-57
2022/11/01 12:38:23;;;;;;;9.73;1.83;;;17.30;99.90;;;;;;5017864;28;20271;-56
2022/11/01 12:40:55;;;;;;;7.67;2.10;;;17.20;99.90;;;;;;5025089;28;20230;-56
2022/11/01 12:43:39;;;;;;;7.23;1.90;;;17.30;99.90;;;;;;5021855;28;20260;-57
2022/11/01 12:46:15;;;;;;;6.60;1.70;;;17.40;99.90;;;;;;5021579;28;20221;-57
2022/11/01 12:48:49;;;;;;;8.47;2.13;;;17.40;99.90;;;;;;5020786;28;20228;-57
2022/11/01 12:51:21;;;;;;;7.67;1.70;;;17.40;99.90;;;;;;5023059;28;20264;-56
2022/11/01 12:53:58;;;;;;;8.73;2.10;;;17.30;99.90;;;;;;5019557;28;20593;-56
2022/11/01 12:56:26;;;;;;;6.50;1.80;;;17.30;99.90;;;;;;5021492;28;20227;-57
2022/11/01 12:58:56;;;;;;;9.73;2.40;;;17.30;99.90;;;;;;5016675;28;20229;-56
2022/11/01 13:01:36;;;;;;;8.23;1.80;;;17.30;99.90;;;;;;5021868;28;20232;-56
2022/11/01 13:04:17;;;;;;;8.90;1.87;;;17.30;99.90;;;;;;5021904;28;20714;-57
2022/11/01 13:07:18;;;;;;;6.73;1.70;;;17.30;99.90;;;;;;5016929;28;20676;-56